createdAt,value
2018-11-23T00:00:35.375Z,0.72
2018-11-23T00:03:02.189Z,0.73
2018-11-23T00:05:28.789Z,0.71
2018-11-23T00:07:57.829Z,0.69
2018-11-23T00:10:26.892Z,0.74
2018-11-23T00:12:54.438Z,0.74
2018-11-23T00:15:22.168Z,0.76
2018-11-23T00:17:48.788Z,0.76
2018-11-23T00:20:16.684Z,0.70
2018-11-23T00:22:43.742Z,0.73
2018-11-23T00:25:12.737Z,0.71
2018-11-23T00:27:40.570Z,0.71
2018-11-23T00:30:12.497Z,0.75
2018-11-23T00:32:39.932Z,0.73
2018-11-23T00:35:08.018Z,0.72
2018-11-23T00:37:36.070Z,0.72
2018-11-23T00:40:02.640Z,0.72
2018-11-23T00:42:29.246Z,0.79
2018-11-23T00:44:55.811Z,0.74
2018-11-23T00:47:24.342Z,0.77
2018-11-23T00:49:50.921Z,0.71
2018-11-23T00:52:18.827Z,0.68
2018-11-23T00:54:45.388Z,0.64
2018-11-23T00:57:12.377Z,0.70
2018-11-23T00:59:39.066Z,0.65
2018-11-23T01:02:07.196Z,0.65
2018-11-23T01:04:35.243Z,0.69
2018-11-23T01:07:02.295Z,0.69
2018-11-23T01:09:30.063Z,0.68
2018-11-23T01:11:57.604Z,0.68
2018-11-23T01:14:25.640Z,0.69
2018-11-23T01:16:52.214Z,0.67
2018-11-23T01:19:19.842Z,0.61
2018-11-23T01:21:48.475Z,0.61
2018-11-23T01:24:16.915Z,0.65
2018-11-23T01:26:43.476Z,0.70
2018-11-23T01:29:10.190Z,0.67
2018-11-23T01:31:37.929Z,0.65
2018-11-23T01:34:04.608Z,0.65
2018-11-23T01:36:31.192Z,0.68
2018-11-23T01:38:57.810Z,0.65
2018-11-23T01:41:24.830Z,0.66
2018-11-23T01:43:51.341Z,0.69
2018-11-23T01:46:18.671Z,0.69
2018-11-23T01:48:45.281Z,0.70
2018-11-23T01:51:13.011Z,0.72
2018-11-23T01:53:39.609Z,0.71
2018-11-23T01:56:07.474Z,0.67
2018-11-23T01:58:34.065Z,0.68
2018-11-23T02:01:00.733Z,0.64
2018-11-23T02:03:27.559Z,0.69
2018-11-23T02:05:54.153Z,0.70
2018-11-23T02:08:20.745Z,0.65
2018-11-23T02:10:47.371Z,0.67
2018-11-23T02:13:14.208Z,0.71
2018-11-23T02:15:41.572Z,0.69
2018-11-23T02:18:08.159Z,0.71
2018-11-23T02:20:34.797Z,0.70
2018-11-23T02:23:01.362Z,0.73
2018-11-23T02:25:27.980Z,0.74
2018-11-23T02:27:54.570Z,0.75
2018-11-23T02:30:22.524Z,0.79
2018-11-23T02:32:49.127Z,0.77
2018-11-23T02:35:16.100Z,0.80
2018-11-23T02:37:42.704Z,0.75
2018-11-23T02:40:10.710Z,0.74
2018-11-23T02:42:37.643Z,0.76
2018-11-23T02:45:06.131Z,0.80
2018-11-23T02:47:32.718Z,0.78
2018-11-23T02:49:59.328Z,0.79
2018-11-23T02:52:25.902Z,0.74
2018-11-23T02:54:52.499Z,0.70
2018-11-23T02:57:19.105Z,0.68
2018-11-23T02:59:45.707Z,0.67
2018-11-23T03:02:12.297Z,0.64
2018-11-23T03:04:38.904Z,0.66
2018-11-23T03:07:05.487Z,0.66
2018-11-23T03:09:32.118Z,0.72
2018-11-23T03:11:58.695Z,0.70
2018-11-23T03:14:25.297Z,0.68
2018-11-23T03:16:51.884Z,0.70
2018-11-23T03:19:18.480Z,0.70
2018-11-23T03:21:45.104Z,0.69
2018-11-23T03:24:11.691Z,0.69
2018-11-23T03:26:38.287Z,0.66
2018-11-23T03:29:04.943Z,0.61
2018-11-23T03:31:31.546Z,0.65
2018-11-23T03:33:58.146Z,0.64
2018-11-23T03:36:24.771Z,0.59
2018-11-23T03:38:51.687Z,0.59
2018-11-23T03:41:18.284Z,0.57
2018-11-23T03:43:44.959Z,0.57
2018-11-23T03:46:11.580Z,0.55
2018-11-23T03:48:38.153Z,0.63
2018-11-23T03:51:04.825Z,0.59
2018-11-23T03:53:31.417Z,0.55
2018-11-23T03:55:58.025Z,0.56
2018-11-23T03:58:24.610Z,0.59
2018-11-23T04:00:51.226Z,0.58
2018-11-23T04:03:17.806Z,0.57
2018-11-23T04:05:44.409Z,0.53
2018-11-23T04:08:10.977Z,0.58
2018-11-23T04:10:37.575Z,0.62
2018-11-23T04:13:04.417Z,0.63
2018-11-23T04:15:31.015Z,0.56
2018-11-23T04:17:57.616Z,0.59
2018-11-23T04:20:24.207Z,0.66
2018-11-23T04:22:50.785Z,0.59
2018-11-23T04:25:17.396Z,0.61
2018-11-23T04:27:44.018Z,0.59
2018-11-23T04:30:12.685Z,0.55
2018-11-23T04:32:39.275Z,0.54
2018-11-23T04:35:07.554Z,0.57
2018-11-23T04:37:34.122Z,0.51
2018-11-23T04:40:00.715Z,0.57
2018-11-23T04:42:27.286Z,0.53
2018-11-23T04:44:53.872Z,0.51
2018-11-23T04:47:20.455Z,0.57
2018-11-23T04:49:47.036Z,0.53
2018-11-23T04:52:13.625Z,0.60
2018-11-23T04:54:40.193Z,0.62
2018-11-23T04:57:06.798Z,0.60
2018-11-23T04:59:33.377Z,0.57
2018-11-23T05:01:59.957Z,0.58
2018-11-23T05:04:26.542Z,0.56
2018-11-23T05:06:53.120Z,0.56
2018-11-23T05:09:19.688Z,0.58
2018-11-23T05:11:46.299Z,0.59
2018-11-23T05:14:12.873Z,0.29
2018-11-23T05:16:39.474Z,0.63
2018-11-23T05:19:06.098Z,0.58
2018-11-23T05:21:32.685Z,0.60
2018-11-23T05:23:59.265Z,0.62
2018-11-23T05:26:25.877Z,0.57
2018-11-23T05:28:52.457Z,0.55
2018-11-23T05:31:19.045Z,0.56
2018-11-23T05:33:45.606Z,0.55
2018-11-23T05:36:12.217Z,0.52
2018-11-23T05:38:38.796Z,0.54
2018-11-23T05:41:05.378Z,0.55
2018-11-23T05:43:31.954Z,0.60
2018-11-23T05:45:58.541Z,0.61
2018-11-23T05:48:26.960Z,0.56
2018-11-23T05:50:51.768Z,0.59
2018-11-23T05:53:18.351Z,0.54
2018-11-23T05:55:44.924Z,0.56
2018-11-23T05:58:11.575Z,0.55
2018-11-23T06:00:38.133Z,0.56
2018-11-23T06:03:04.724Z,0.53
2018-11-23T06:05:31.288Z,0.54
2018-11-23T06:07:57.908Z,0.56
2018-11-23T06:10:24.504Z,0.54
2018-11-23T06:12:51.140Z,0.53
2018-11-23T06:15:18.920Z,0.51
2018-11-23T06:17:46.057Z,0.49
2018-11-23T06:20:14.727Z,0.51
2018-11-23T06:22:41.678Z,0.49
2018-11-23T06:25:11.087Z,0.49
2018-11-23T06:27:37.952Z,0.50
2018-11-23T06:30:05.986Z,0.54
2018-11-23T06:33:12.101Z,0.49
2018-11-23T06:35:38.663Z,0.51
2018-11-23T06:38:05.243Z,0.49
2018-11-23T06:40:31.813Z,0.44
2018-11-23T06:42:58.406Z,0.46
2018-11-23T06:45:24.982Z,0.50
2018-11-23T06:47:51.545Z,0.47
2018-11-23T06:50:18.130Z,0.40
2018-11-23T06:52:44.718Z,0.43
2018-11-23T06:55:11.637Z,0.48
2018-11-23T06:57:38.460Z,0.48
2018-11-23T07:00:26.451Z,0.48
2018-11-23T07:02:58.900Z,0.49
2018-11-23T07:05:19.610Z,0.45
2018-11-23T07:07:46.175Z,0.47
2018-11-23T07:10:12.777Z,0.50
2018-11-23T07:12:39.896Z,0.45
2018-11-23T07:15:10.453Z,0.45
2018-11-23T07:17:37.281Z,0.48
2018-11-23T07:20:05.373Z,0.46
2018-11-23T07:22:31.935Z,0.47
2018-11-23T07:24:58.533Z,0.53
2018-11-23T07:27:25.101Z,0.51
2018-11-23T07:29:51.689Z,0.53
2018-11-23T07:32:18.261Z,0.53
2018-11-23T07:34:44.862Z,0.55
2018-11-23T07:37:11.460Z,0.57
2018-11-23T07:40:18.373Z,0.57
2018-11-23T07:42:44.936Z,0.56
2018-11-23T07:45:11.551Z,0.51
2018-11-23T07:47:38.114Z,0.48
2018-11-23T07:50:06.410Z,0.49
2018-11-23T07:52:32.976Z,0.45
2018-11-23T07:54:59.560Z,0.42
2018-11-23T07:57:26.149Z,0.47
2018-11-23T07:59:52.748Z,0.52
2018-11-23T08:02:19.316Z,0.53
2018-11-23T08:04:45.949Z,0.53
2018-11-23T08:07:12.535Z,0.49
2018-11-23T08:09:39.933Z,0.47
2018-11-23T08:12:06.796Z,0.48
2018-11-23T08:14:33.389Z,0.47
2018-11-23T08:16:59.993Z,0.47
2018-11-23T08:19:26.554Z,0.49
2018-11-23T08:21:53.144Z,0.47
2018-11-23T08:24:19.725Z,0.51
2018-11-23T08:26:46.328Z,0.52
2018-11-23T08:29:12.898Z,0.44
2018-11-23T08:31:39.707Z,0.48
2018-11-23T08:34:06.539Z,0.48
2018-11-23T08:36:33.150Z,0.51
2018-11-23T08:39:04.700Z,0.53
2018-11-23T08:41:26.314Z,0.50
2018-11-23T08:43:52.890Z,0.50
2018-11-23T08:46:19.537Z,0.48
2018-11-23T08:48:46.125Z,0.49
2018-11-23T08:51:13.030Z,0.49
2018-11-23T08:53:39.592Z,0.50
2018-11-23T08:56:06.172Z,0.51
2018-11-23T08:58:32.736Z,0.55
2018-11-23T09:00:59.330Z,0.60
2018-11-23T09:03:25.914Z,0.64
2018-11-23T09:05:52.489Z,0.68
2018-11-23T09:08:19.072Z,0.67
2018-11-23T09:10:45.669Z,0.65
2018-11-23T09:13:12.270Z,0.67
2018-11-23T09:15:38.839Z,0.67
2018-11-23T09:18:05.440Z,0.66
2018-11-23T09:20:32.022Z,0.68
2018-11-23T09:22:58.619Z,0.66
2018-11-23T09:25:25.184Z,0.64
2018-11-23T09:27:51.849Z,0.69
2018-11-23T09:30:19.876Z,0.70
2018-11-23T09:32:47.147Z,0.68
2018-11-23T09:35:13.743Z,0.69
2018-11-23T09:37:40.723Z,0.67
2018-11-23T09:40:09.503Z,0.69
2018-11-23T09:42:36.272Z,0.73
2018-11-23T09:45:03.167Z,0.79
2018-11-23T09:47:29.766Z,0.82
2018-11-23T09:49:56.356Z,0.79
2018-11-23T09:52:22.952Z,0.87
2018-11-23T09:54:49.645Z,0.82
2018-11-23T09:57:16.226Z,0.85
2018-11-23T09:59:42.833Z,0.80
2018-11-23T10:02:09.561Z,0.83
2018-11-23T10:04:36.225Z,0.79
2018-11-23T10:07:02.937Z,0.80
2018-11-23T10:09:29.564Z,0.76
2018-11-23T10:11:56.166Z,0.79
2018-11-23T10:14:22.761Z,0.82
2018-11-23T10:16:49.361Z,0.93
2018-11-23T10:19:35.582Z,0.94
2018-11-23T10:22:02.185Z,0.91
2018-11-23T10:24:28.790Z,0.85
2018-11-23T10:26:55.351Z,0.90
2018-11-23T10:29:22.272Z,0.90
2018-11-23T10:31:48.837Z,0.93
2018-11-23T10:34:15.981Z,0.91
2018-11-23T10:36:42.565Z,0.88
2018-11-23T10:39:09.158Z,0.88
2018-11-23T10:41:35.749Z,0.87
2018-11-23T10:44:02.338Z,0.90
2018-11-23T10:46:28.921Z,0.91
2018-11-23T10:48:55.520Z,0.94
2018-11-23T10:51:22.110Z,0.91
2018-11-23T10:53:48.678Z,1.01
2018-11-23T10:56:15.276Z,1.09
2018-11-23T10:58:41.883Z,1.02
2018-11-23T11:01:28.072Z,1.08
2018-11-23T11:04:14.263Z,1.12
2018-11-23T11:07:00.480Z,1.15
2018-11-23T11:09:27.064Z,1.17
2018-11-23T11:11:53.668Z,1.14
2018-11-23T11:14:20.242Z,1.11
2018-11-23T11:16:46.832Z,1.14
2018-11-23T11:19:13.423Z,1.19
2018-11-23T11:21:40.011Z,1.19
2018-11-23T11:24:06.582Z,1.21
2018-11-23T11:26:33.206Z,1.20
2018-11-23T11:28:59.799Z,1.23
2018-11-23T11:31:26.640Z,1.23
2018-11-23T11:33:53.220Z,1.18
2018-11-23T11:36:19.807Z,1.20
2018-11-23T11:38:46.389Z,1.21
2018-11-23T11:41:13.077Z,1.26
2018-11-23T11:43:39.822Z,1.15
2018-11-23T11:46:06.777Z,1.10
2018-11-23T11:48:33.684Z,1.14
2018-11-23T11:51:00.293Z,1.14
2018-11-23T11:53:27.070Z,1.12
2018-11-23T11:55:53.706Z,1.19
2018-11-23T11:58:20.437Z,1.22
2018-11-23T12:00:47.703Z,0.27
2018-11-23T12:03:14.288Z,1.17
2018-11-23T12:05:40.910Z,1.21
2018-11-23T12:08:07.519Z,1.23
2018-11-23T12:10:34.159Z,1.25
2018-11-23T12:13:00.781Z,1.21
2018-11-23T12:15:27.542Z,1.23
2018-11-23T12:17:54.144Z,1.27
2018-11-23T12:20:22.240Z,1.34
2018-11-23T12:22:49.187Z,1.37
2018-11-23T12:25:16.087Z,1.32
2018-11-23T12:27:42.682Z,1.23
2018-11-23T12:30:11.215Z,1.27
2018-11-23T12:32:37.796Z,1.27
2018-11-23T12:35:05.901Z,1.24
2018-11-23T12:37:32.467Z,1.28
2018-11-23T12:39:59.979Z,1.29
2018-11-23T12:42:26.557Z,0.90
2018-11-23T12:44:53.173Z,1.23
2018-11-23T12:47:19.860Z,1.24
2018-11-23T12:49:46.482Z,1.26
2018-11-23T12:52:13.093Z,1.29
2018-11-23T12:54:39.681Z,0.99
2018-11-23T12:57:07.024Z,1.38
2018-11-23T12:59:33.608Z,1.28
2018-11-23T13:02:00.655Z,1.32
2018-11-23T13:04:27.279Z,1.38
2018-11-23T13:06:53.931Z,1.43
2018-11-23T13:09:20.610Z,1.37
2018-11-23T13:11:47.200Z,1.35
2018-11-23T13:14:13.783Z,1.35
2018-11-23T13:16:40.574Z,1.40
2018-11-23T13:19:07.166Z,1.41
2018-11-23T13:21:33.746Z,1.44
2018-11-23T13:24:00.857Z,1.43
2018-11-23T13:26:27.433Z,1.44
2018-11-23T13:28:54.250Z,1.46
2018-11-23T13:31:20.943Z,1.47
2018-11-23T13:33:47.517Z,1.48
2018-11-23T13:36:14.107Z,1.49
2018-11-23T13:38:40.682Z,1.46
2018-11-23T13:41:07.290Z,1.50
2018-11-23T13:43:33.873Z,1.51
2018-11-23T13:46:04.425Z,1.54
2018-11-23T13:48:31.116Z,1.58
2018-11-23T13:50:57.977Z,1.60
2018-11-23T13:53:24.595Z,1.60
2018-11-23T13:55:51.591Z,1.56
2018-11-23T13:58:18.205Z,1.58
2018-11-23T14:00:44.925Z,1.53
2018-11-23T14:03:11.569Z,1.56
2018-11-23T14:05:38.167Z,1.59
2018-11-23T14:08:04.949Z,1.62
2018-11-23T14:10:31.723Z,1.65
2018-11-23T14:12:58.369Z,1.67
2018-11-23T14:15:26.356Z,1.69
2018-11-23T14:17:54.016Z,1.69
2018-11-23T14:20:21.577Z,1.68
2018-11-23T14:22:48.164Z,1.68
2018-11-23T14:25:16.078Z,1.75
2018-11-23T14:27:43.145Z,1.70
2018-11-23T14:30:31.566Z,1.69
2018-11-23T14:32:58.639Z,1.72
2018-11-23T14:35:29.262Z,1.68
2018-11-23T14:37:56.673Z,1.65
2018-11-23T14:40:23.245Z,1.62
2018-11-23T14:42:50.216Z,1.62
2018-11-23T14:45:19.194Z,1.61
2018-11-23T14:47:46.363Z,1.69
2018-11-23T14:50:15.352Z,1.68
2018-11-23T14:52:43.128Z,1.69
2018-11-23T14:55:09.706Z,1.72
2018-11-23T14:57:37.123Z,1.61
2018-11-23T15:00:08.436Z,1.59
2018-11-23T15:02:35.005Z,1.57
2018-11-23T15:05:01.570Z,1.57
2018-11-23T15:07:28.190Z,1.58
2018-11-23T15:09:55.007Z,1.59
2018-11-23T15:12:21.601Z,1.60
2018-11-23T15:14:48.214Z,1.59
2018-11-23T15:17:14.807Z,1.61
2018-11-23T15:19:41.405Z,1.59
2018-11-23T15:22:07.984Z,1.57
2018-11-23T15:24:34.593Z,1.56
2018-11-23T15:27:01.176Z,1.56
2018-11-23T15:29:27.768Z,1.58
2018-11-23T15:31:54.341Z,1.59
2018-11-23T15:34:20.977Z,1.59
2018-11-23T15:37:08.098Z,1.55
2018-11-23T15:39:34.630Z,1.56
2018-11-23T15:42:02.648Z,1.56
2018-11-23T15:44:29.467Z,1.55
2018-11-23T15:46:56.085Z,1.58
2018-11-23T15:49:24.437Z,1.65
2018-11-23T15:51:52.538Z,1.64
2018-11-23T15:54:20.270Z,1.61
2018-11-23T15:56:54.875Z,1.63
2018-11-23T15:59:22.250Z,1.63
2018-11-23T16:01:49.047Z,1.64
2018-11-23T16:04:16.874Z,1.64
2018-11-23T16:06:43.461Z,1.67
2018-11-23T16:09:11.771Z,1.69
2018-11-23T16:11:38.413Z,1.78
2018-11-23T16:14:05.113Z,1.68
2018-11-23T16:16:31.711Z,1.67
2018-11-23T16:18:58.314Z,1.63
2018-11-23T16:21:24.894Z,1.71
2018-11-23T16:23:51.489Z,1.71
2018-11-23T16:26:18.065Z,1.79
2018-11-23T16:28:44.644Z,1.73
2018-11-23T16:31:11.213Z,1.68
2018-11-23T16:33:37.822Z,1.65
2018-11-23T16:36:04.405Z,1.66
2018-11-23T16:38:30.953Z,1.61
2018-11-23T16:40:57.537Z,1.63
2018-11-23T16:43:24.185Z,1.61
2018-11-23T16:45:50.773Z,1.58
2018-11-23T16:48:18.085Z,1.58
2018-11-23T16:50:44.956Z,1.60
2018-11-23T16:53:11.584Z,1.58
2018-11-23T16:55:38.181Z,1.59
2018-11-23T16:58:24.388Z,1.57
2018-11-23T17:00:50.984Z,1.58
2018-11-23T17:03:19.128Z,1.60
2018-11-23T17:05:55.637Z,1.59
2018-11-23T17:08:22.208Z,1.59
2018-11-23T17:10:48.786Z,1.57
2018-11-23T17:13:15.368Z,1.59
2018-11-23T17:15:41.936Z,1.58
2018-11-23T17:18:08.621Z,1.60
2018-11-23T17:20:35.760Z,1.58
2018-11-23T17:23:03.317Z,1.55
2018-11-23T17:25:30.470Z,1.53
2018-11-23T17:27:58.321Z,1.56
2018-11-23T17:30:26.142Z,1.56
2018-11-23T17:32:52.935Z,1.58
2018-11-23T17:35:19.618Z,1.55
2018-11-23T17:37:46.222Z,1.56
2018-11-23T17:40:14.113Z,1.55
2018-11-23T17:42:40.700Z,1.60
2018-11-23T17:45:12.043Z,1.62
2018-11-23T17:47:38.684Z,1.64
2018-11-23T17:50:07.698Z,1.67
2018-11-23T17:52:34.273Z,1.70
2018-11-23T17:55:00.858Z,1.68
2018-11-23T17:57:27.446Z,1.67
2018-11-23T17:59:54.019Z,1.63
2018-11-23T18:02:22.769Z,1.61
2018-11-23T18:04:50.012Z,1.61
2018-11-23T18:07:16.700Z,1.62
2018-11-23T18:09:43.428Z,1.57
2018-11-23T18:12:10.033Z,1.55
2018-11-23T18:14:36.582Z,1.56
2018-11-23T18:17:03.266Z,1.62
2018-11-23T18:19:30.008Z,1.68
2018-11-23T18:21:56.618Z,1.73
2018-11-23T18:24:23.187Z,1.75
2018-11-23T18:26:50.776Z,1.74
2018-11-23T18:29:17.520Z,1.72
2018-11-23T18:31:44.082Z,1.72
2018-11-23T18:34:10.698Z,1.74
2018-11-23T18:36:37.318Z,1.73
2018-11-23T18:39:06.731Z,1.72
2018-11-23T18:41:33.306Z,1.73
2018-11-23T18:43:59.951Z,1.75
2018-11-23T18:46:26.515Z,1.76
2018-11-23T18:48:53.117Z,1.79
2018-11-23T18:51:19.695Z,1.79
2018-11-23T18:53:46.304Z,1.77
2018-11-23T18:56:12.867Z,1.75
2018-11-23T18:58:39.467Z,1.80
2018-11-23T19:01:06.055Z,1.80
2018-11-23T19:03:32.658Z,1.50
2018-11-23T19:05:59.218Z,1.77
2018-11-23T19:08:25.819Z,1.77
2018-11-23T19:10:52.433Z,1.78
2018-11-23T19:13:19.050Z,1.79
2018-11-23T19:15:45.590Z,1.81
2018-11-23T19:18:12.416Z,1.79
2018-11-23T19:20:38.992Z,1.79
2018-11-23T19:23:05.629Z,1.80
2018-11-23T19:25:32.206Z,1.80
2018-11-23T19:27:58.808Z,1.79
2018-11-23T19:30:28.516Z,1.76
2018-11-23T19:32:51.964Z,1.75
2018-11-23T19:35:18.535Z,1.79
2018-11-23T19:37:45.127Z,1.81
2018-11-23T19:40:12.623Z,1.79
2018-11-23T19:42:39.387Z,1.81
2018-11-23T19:45:15.424Z,1.83
2018-11-23T19:47:42.034Z,1.84
2018-11-23T19:50:12.636Z,1.83
2018-11-23T19:52:39.390Z,1.84
2018-11-23T19:55:10.564Z,1.83
2018-11-23T19:57:37.134Z,1.82
2018-11-23T20:00:25.934Z,1.85
2018-11-23T20:02:52.607Z,1.90
2018-11-23T20:05:19.232Z,1.92
2018-11-23T20:07:47.035Z,1.91
2018-11-23T20:10:17.688Z,1.88
2018-11-23T20:12:45.017Z,1.81
2018-11-23T20:15:15.865Z,1.81
2018-11-23T20:17:42.434Z,1.81
2018-11-23T20:20:10.280Z,1.85
2018-11-23T20:22:36.849Z,1.81
2018-11-23T20:25:05.523Z,1.84
2018-11-23T20:27:32.106Z,1.87
2018-11-23T20:29:58.706Z,1.89
2018-11-23T20:32:25.287Z,1.93
2018-11-23T20:34:51.887Z,1.92
2018-11-23T20:37:18.722Z,1.91
2018-11-23T20:39:56.151Z,1.96
2018-11-23T20:42:28.287Z,1.97
2018-11-23T20:44:57.864Z,1.96
2018-11-23T20:47:24.881Z,1.91
2018-11-23T20:49:51.791Z,1.89
2018-11-23T20:52:18.854Z,1.88
2018-11-23T20:54:45.457Z,1.83
2018-11-23T20:57:12.031Z,1.85
2018-11-23T20:59:39.130Z,1.89
2018-11-23T21:02:05.213Z,1.89
2018-11-23T21:04:31.795Z,1.90
2018-11-23T21:06:58.396Z,1.89
2018-11-23T21:09:30.998Z,1.92
2018-11-23T21:11:51.563Z,1.96
2018-11-23T21:14:18.159Z,1.97
2018-11-23T21:16:44.729Z,1.95
2018-11-23T21:19:11.309Z,1.98
2018-11-23T21:21:37.883Z,1.94
2018-11-23T21:24:04.530Z,1.95
2018-11-23T21:26:31.127Z,1.99
2018-11-23T21:28:57.688Z,2.02
2018-11-23T21:31:24.316Z,1.98
2018-11-23T21:33:50.881Z,1.97
2018-11-23T21:36:17.479Z,1.96
2018-11-23T21:38:44.071Z,2.01
2018-11-23T21:41:10.681Z,1.98
2018-11-23T21:43:37.259Z,1.95
2018-11-23T21:46:03.877Z,1.94
2018-11-23T21:48:30.461Z,1.93
2018-11-23T21:50:57.055Z,1.93
2018-11-23T21:53:23.636Z,1.97
2018-11-23T21:55:50.214Z,1.96
2018-11-23T21:58:16.785Z,1.89
2018-11-23T22:00:43.371Z,1.88
2018-11-23T22:03:09.942Z,1.86
2018-11-23T22:05:36.529Z,1.81
2018-11-23T22:08:03.102Z,1.81
2018-11-23T22:10:29.694Z,1.87
2018-11-23T22:12:56.247Z,1.89
2018-11-23T22:15:23.658Z,1.83
2018-11-23T22:17:51.186Z,1.80
2018-11-23T22:20:37.389Z,1.84
2018-11-23T22:23:03.969Z,1.83
2018-11-23T22:25:30.926Z,1.86
2018-11-23T22:27:57.464Z,1.90
2018-11-23T22:30:47.269Z,1.94
2018-11-23T22:33:13.843Z,1.93
2018-11-23T22:35:40.430Z,1.94
2018-11-23T22:38:07.008Z,1.94
2018-11-23T22:40:33.607Z,1.99
2018-11-23T22:43:00.189Z,1.96
2018-11-23T22:45:26.772Z,1.95
2018-11-23T22:47:53.356Z,1.93
2018-11-23T22:50:21.042Z,1.90
2018-11-23T22:52:47.918Z,1.92
2018-11-23T22:55:14.806Z,1.96
2018-11-23T22:57:41.407Z,1.91
2018-11-23T23:03:19.668Z,1.92
2018-11-23T23:05:46.270Z,1.94
2018-11-23T23:08:12.838Z,1.93
2018-11-23T23:10:39.451Z,1.98
2018-11-23T23:13:06.031Z,1.99
2018-11-23T23:15:32.601Z,2.02
2018-11-23T23:17:59.194Z,1.95
2018-11-23T23:20:25.769Z,1.92
2018-11-23T23:22:52.363Z,1.88
2018-11-23T23:25:18.927Z,1.88
2018-11-23T23:27:45.519Z,1.87
2018-11-23T23:30:13.238Z,1.90
2018-11-23T23:32:39.824Z,1.92
2018-11-23T23:35:07.562Z,1.86
2018-11-23T23:37:34.183Z,1.84
2018-11-23T23:40:00.721Z,1.87
2018-11-23T23:42:27.304Z,1.89
2018-11-23T23:44:53.869Z,1.91
2018-11-23T23:47:20.481Z,1.96
2018-11-23T23:49:47.074Z,1.98
2018-11-23T23:52:13.661Z,1.94
2018-11-23T23:54:40.231Z,1.88
2018-11-23T23:57:06.847Z,1.83
2018-11-23T23:59:33.421Z,1.84
